Time,TemperatureF,DewpointF,PressureIn,WindDirection,WindDirectionDegrees,WindSpeedMPH,WindSpeedGustMPH,Humidity,HourlyPrecipIn,Conditions,Clouds,dailyrainin,SoftwareType,DateUTC
2013-09-04 00:14:00,65.1,64.0,30.02,East,88,0.0,0.0,97,0.00,,,0.00,weatherlink.com 1.10,2013-09-04 05:14:00,
2013-09-04 00:29:00,64.9,64.0,30.02,East,89,0.0,0.0,97,0.00,,,0.00,weatherlink.com 1.10,2013-09-04 05:29:00,
2013-09-04 00:44:00,64.7,64.0,30.02,East,88,0.0,0.0,97,0.00,,,0.00,weatherlink.com 1.10,2013-09-04 05:44:00,
2013-09-04 00:59:00,64.4,64.0,30.02,East,89,0.0,0.0,97,0.00,,,0.00,weatherlink.com 1.10,2013-09-04 05:59:00,
2013-09-04 01:14:00,64.2,63.0,30.02,East,88,0.0,0.0,97,0.00,,,0.00,weatherlink.com 1.10,2013-09-04 06:14:00,
2013-09-04 01:30:00,64.1,63.0,30.02,East,88,0.0,0.0,97,0.00,,,0.00,weatherlink.com 1.10,2013-09-04 06:30:00,
2013-09-04 01:44:00,64.0,63.0,30.02,East,88,0.0,0.0,97,0.00,,,0.00,weatherlink.com 1.10,2013-09-04 06:44:00,
2013-09-04 01:59:00,63.8,63.0,30.02,East,88,0.0,0.0,98,0.00,,,0.00,weatherlink.com 1.10,2013-09-04 06:59:00,
2013-09-04 02:14:00,63.5,63.0,30.02,East,88,0.0,0.0,97,0.00,,,0.00,weatherlink.com 1.10,2013-09-04 07:14:00,
2013-09-04 02:29:00,63.3,63.0,30.01,East,88,0.0,0.0,97,0.00,,,0.00,weatherlink.com 1.10,2013-09-04 07:29:00,
2013-09-04 02:44:00,63.4,63.0,30.01,East,88,0.0,0.0,98,0.00,,,0.00,weatherlink.com 1.10,2013-09-04 07:44:00,
2013-09-04 02:59:00,63.2,63.0,30.02,East,88,0.0,0.0,98,0.00,,,0.00,weatherlink.com 1.10,2013-09-04 07:59:00,
2013-09-04 03:14:00,63.0,63.0,30.02,East,88,0.0,0.0,98,0.00,,,0.00,weatherlink.com 1.10,2013-09-04 08:14:00,
2013-09-04 03:29:00,62.8,62.0,30.02,East,88,0.0,0.0,98,0.00,,,0.00,weatherlink.com 1.10,2013-09-04 08:29:00,
2013-09-04 03:44:00,62.7,62.0,30.02,East,88,0.0,0.0,98,0.00,,,0.00,weatherlink.com 1.10,2013-09-04 08:44:00,
2013-09-04 03:59:00,62.8,62.0,30.02,East,88,0.0,0.0,98,0.00,,,0.00,weatherlink.com 1.10,2013-09-04 08:59:00,
2013-09-04 04:14:00,63.0,63.0,30.02,East,88,0.0,0.0,98,0.00,,,0.00,weatherlink.com 1.10,2013-09-04 09:14:00,
2013-09-04 04:29:00,62.9,62.0,30.02,East,88,0.0,0.0,98,0.00,,,0.00,weatherlink.com 1.10,2013-09-04 09:29:00,
2013-09-04 04:44:00,62.7,62.0,30.03,East,88,0.0,0.0,98,0.00,,,0.00,weatherlink.com 1.10,2013-09-04 09:44:00,
2013-09-04 04:59:00,62.6,62.0,30.03,East,88,0.0,0.0,98,0.00,,,0.00,weatherlink.com 1.10,2013-09-04 09:59:00,
2013-09-04 05:14:00,62.6,62.0,30.04,East,88,0.0,0.0,98,0.00,,,0.00,weatherlink.com 1.10,2013-09-04 10:14:00,
2013-09-04 05:29:00,62.5,62.0,30.04,East,88,0.0,0.0,98,0.00,,,0.00,weatherlink.com 1.10,2013-09-04 10:29:00,
2013-09-04 05:44:00,62.3,62.0,30.05,East,88,0.0,0.0,98,0.00,,,0.00,weatherlink.com 1.10,2013-09-04 10:44:00,
2013-09-04 05:59:00,62.2,62.0,30.05,East,88,0.0,0.0,98,0.00,,,0.00,weatherlink.com 1.10,2013-09-04 10:59:00,
2013-09-04 06:14:00,62.2,62.0,30.06,East,88,0.0,0.0,98,0.00,,,0.00,weatherlink.com 1.10,2013-09-04 11:14:00,
2013-09-04 06:29:00,62.1,62.0,30.06,East,88,0.0,0.0,98,0.00,,,0.00,weatherlink.com 1.10,2013-09-04 11:29:00,
2013-09-04 06:44:00,62.0,62.0,30.07,East,88,0.0,0.0,98,0.00,,,0.00,weatherlink.com 1.10,2013-09-04 11:44:00,
2013-09-04 06:59:00,61.9,61.0,30.07,East,88,0.0,0.0,98,0.00,,,0.00,weatherlink.com 1.10,2013-09-04 11:59:00,
2013-09-04 07:14:00,62.1,62.0,30.09,East,88,0.0,0.0,99,0.00,,,0.00,weatherlink.com 1.10,2013-09-04 12:14:00,
2013-09-04 07:30:00,62.5,62.0,30.09,East,88,0.0,0.0,99,0.00,,,0.00,weatherlink.com 1.10,2013-09-04 12:30:00,
2013-09-04 07:44:00,63.6,63.0,30.09,East,87,0.0,1.0,99,0.00,,,0.00,weatherlink.com 1.10,2013-09-04 12:44:00,
2013-09-04 07:59:00,64.5,64.0,30.09,East,87,0.0,1.0,99,0.00,,,0.00,weatherlink.com 1.10,2013-09-04 12:59:00,
2013-09-04 08:14:00,65.6,65.0,30.09,East,86,0.0,1.0,99,0.00,,,0.00,weatherlink.com 1.10,2013-09-04 13:14:00,
2013-09-04 08:30:00,66.4,66.0,30.10,East,86,0.0,0.0,98,0.00,,,0.00,weatherlink.com 1.10,2013-09-04 13:30:00,
2013-09-04 08:45:00,68.3,67.0,30.10,South,179,0.0,1.0,95,0.00,,,0.00,weatherlink.com 1.10,2013-09-04 13:45:00,
2013-09-04 09:00:00,70.1,68.0,30.11,ENE,57,2.0,2.0,93,0.00,,,0.00,weatherlink.com 1.10,2013-09-04 14:00:00,
2013-09-04 09:15:00,73.5,69.0,30.11,NNE,27,0.0,2.0,86,0.00,,,0.00,weatherlink.com 1.10,2013-09-04 14:15:00,
2013-09-04 09:30:00,74.7,69.0,30.12,NE,46,0.0,1.0,82,0.00,,,0.00,weatherlink.com 1.10,2013-09-04 14:30:00,
2013-09-04 09:45:00,76.6,70.0,30.12,East,82,0.0,3.0,79,0.00,,,0.00,weatherlink.com 1.10,2013-09-04 14:45:00,
2013-09-04 10:00:00,77.2,70.0,30.12,East,88,0.0,3.0,77,0.00,,,0.00,weatherlink.com 1.10,2013-09-04 15:00:00,
2013-09-04 10:15:00,78.3,70.0,30.12,NW,320,0.0,2.0,76,0.00,,,0.00,weatherlink.com 1.10,2013-09-04 15:15:00,
2013-09-04 10:30:00,78.7,69.0,30.12,ENE,61,0.0,4.0,72,0.00,,,0.00,weatherlink.com 1.10,2013-09-04 15:30:00,
2013-09-04 10:45:00,79.4,69.0,30.12,ESE,122,0.0,3.0,70,0.00,,,0.00,weatherlink.com 1.10,2013-09-04 15:45:00,
2013-09-04 11:00:00,79.8,69.0,30.12,ENE,63,0.0,5.0,70,0.00,,,0.00,weatherlink.com 1.10,2013-09-04 16:00:00,
2013-09-04 11:15:00,80.5,69.0,30.12,East,101,0.0,5.0,67,0.00,,,0.00,weatherlink.com 1.10,2013-09-04 16:15:00,
2013-09-04 11:30:00,81.1,68.0,30.13,SW,236,0.0,3.0,64,0.00,,,0.00,weatherlink.com 1.10,2013-09-04 16:30:00,
2013-09-04 11:45:00,81.8,66.0,30.12,NE,46,2.0,5.0,60,0.00,,,0.00,weatherlink.com 1.10,2013-09-04 16:45:00,
2013-09-04 12:00:00,82.2,67.0,30.12,NNW,345,2.0,4.0,60,0.00,,,0.00,weatherlink.com 1.10,2013-09-04 17:00:00,
2013-09-04 12:15:00,82.1,66.0,30.12,NW,311,2.0,5.0,59,0.00,,,0.00,weatherlink.com 1.10,2013-09-04 17:15:00,
2013-09-04 12:30:00,82.9,67.0,30.11,ESE,116,0.0,4.0,59,0.00,,,0.00,weatherlink.com 1.10,2013-09-04 17:30:00,
2013-09-04 12:45:00,82.7,67.0,30.11,ENE,75,1.0,5.0,59,0.00,,,0.00,weatherlink.com 1.10,2013-09-04 17:45:00,
2013-09-04 13:00:00,83.1,67.0,30.11,WNW,293,1.0,4.0,59,0.00,,,0.00,weatherlink.com 1.10,2013-09-04 18:00:00,
2013-09-04 13:15:00,83.8,67.0,30.11,NNW,335,2.0,3.0,57,0.00,,,0.00,weatherlink.com 1.10,2013-09-04 18:15:00,
2013-09-04 13:31:00,85.1,67.0,30.10,NNE,15,0.0,2.0,54,0.00,,,0.00,weatherlink.com 1.10,2013-09-04 18:31:00,
2013-09-04 13:46:00,85.5,66.0,30.10,ESE,117,0.0,6.0,52,0.00,,,0.00,weatherlink.com 1.10,2013-09-04 18:46:00,
2013-09-04 14:01:00,85.9,67.0,30.09,NNE,19,2.0,5.0,53,0.00,,,0.00,weatherlink.com 1.10,2013-09-04 19:01:00,
2013-09-04 14:16:00,86.8,67.0,30.09,SE,137,1.0,4.0,52,0.00,,,0.00,weatherlink.com 1.10,2013-09-04 19:16:00,
2013-09-04 14:31:00,85.9,66.0,30.08,NNE,25,5.0,7.0,52,0.00,,,0.00,weatherlink.com 1.10,2013-09-04 19:31:00,
2013-09-04 14:46:00,85.2,66.0,30.08,East,83,2.0,3.0,52,0.00,,,0.00,weatherlink.com 1.10,2013-09-04 19:46:00,
2013-09-04 15:01:00,84.7,67.0,30.08,NW,311,0.0,2.0,56,0.00,,,0.00,weatherlink.com 1.10,2013-09-04 20:01:00,
2013-09-04 15:16:00,84.8,66.0,30.07,ESE,109,0.0,5.0,53,0.00,,,0.00,weatherlink.com 1.10,2013-09-04 20:16:00,
2013-09-04 15:31:00,84.8,65.0,30.07,NE,51,1.0,6.0,52,0.00,,,0.00,weatherlink.com 1.10,2013-09-04 20:31:00,
2013-09-04 15:46:00,84.3,66.0,30.07,West,281,1.0,5.0,54,0.00,,,0.00,weatherlink.com 1.10,2013-09-04 20:46:00,
2013-09-04 16:01:00,84.1,67.0,30.07,SSE,160,1.0,4.0,56,0.00,,,0.00,weatherlink.com 1.10,2013-09-04 21:01:00,
2013-09-04 16:16:00,83.8,65.0,30.07,NE,44,0.0,3.0,54,0.00,,,0.00,weatherlink.com 1.10,2013-09-04 21:16:00,
2013-09-04 16:31:00,83.5,67.0,30.07,North,352,2.0,5.0,57,0.00,,,0.00,weatherlink.com 1.10,2013-09-04 21:31:00,
2013-09-04 16:46:00,82.8,65.0,30.06,East,82,1.0,3.0,56,0.00,,,0.00,weatherlink.com 1.10,2013-09-04 21:46:00,
2013-09-04 17:01:00,83.0,65.0,30.06,East,90,1.0,4.0,55,0.00,,,0.00,weatherlink.com 1.10,2013-09-04 22:01:00,
2013-09-04 17:16:00,82.7,65.0,30.06,NNW,330,0.0,3.0,56,0.00,,,0.00,weatherlink.com 1.10,2013-09-04 22:16:00,
2013-09-04 17:31:00,82.2,66.0,30.06,NE,51,1.0,3.0,58,0.00,,,0.00,weatherlink.com 1.10,2013-09-04 22:31:00,
2013-09-04 17:46:00,81.3,66.0,30.05,ENE,69,0.0,1.0,59,0.00,,,0.00,weatherlink.com 1.10,2013-09-04 22:46:00,
2013-09-04 18:01:00,81.1,65.0,30.05,North,354,2.0,4.0,58,0.00,,,0.00,weatherlink.com 1.10,2013-09-04 23:01:00,
2013-09-04 18:16:00,80.9,66.0,30.06,SSW,192,0.0,2.0,61,0.00,,,0.00,weatherlink.com 1.10,2013-09-04 23:16:00,
2013-09-04 18:31:00,79.8,67.0,30.05,ESE,108,0.0,1.0,65,0.00,,,0.00,weatherlink.com 1.10,2013-09-04 23:31:00,
2013-09-04 18:46:00,78.3,67.0,30.05,ESE,108,0.0,0.0,68,0.00,,,0.00,weatherlink.com 1.10,2013-09-04 23:46:00,
2013-09-04 19:01:00,77.3,68.0,30.06,ESE,108,1.0,1.0,72,0.00,,,0.00,weatherlink.com 1.10,2013-09-05 00:01:00,
2013-09-04 19:16:00,76.1,67.0,30.06,ESE,108,0.0,0.0,74,0.00,,,0.00,weatherlink.com 1.10,2013-09-05 00:16:00,
2013-09-04 19:31:00,74.9,67.0,30.07,ESE,108,0.0,0.0,76,0.00,,,0.00,weatherlink.com 1.10,2013-09-05 00:31:00,
2013-09-04 19:46:00,73.7,67.0,30.07,ESE,108,0.0,0.0,79,0.00,,,0.00,weatherlink.com 1.10,2013-09-05 00:46:00,
2013-09-04 20:01:00,72.7,67.0,30.07,ESE,110,0.0,0.0,81,0.00,,,0.00,weatherlink.com 1.10,2013-09-05 01:01:00,
2013-09-04 20:16:00,71.9,67.0,30.08,ESE,110,0.0,0.0,83,0.00,,,0.00,weatherlink.com 1.10,2013-09-05 01:16:00,
2013-09-04 20:31:00,71.3,66.0,30.09,ESE,110,0.0,0.0,84,0.00,,,0.00,weatherlink.com 1.10,2013-09-05 01:31:00,
2013-09-04 20:46:00,70.6,67.0,30.10,ESE,110,0.0,0.0,87,0.00,,,0.00,weatherlink.com 1.10,2013-09-05 01:46:00,
2013-09-04 21:01:00,69.9,66.0,30.10,ESE,110,0.0,0.0,88,0.00,,,0.00,weatherlink.com 1.10,2013-09-05 02:01:00,
2013-09-04 21:16:00,69.4,66.0,30.11,ESE,110,0.0,0.0,89,0.00,,,0.00,weatherlink.com 1.10,2013-09-05 02:16:00,
2013-09-04 21:31:00,69.1,66.0,30.11,ESE,110,0.0,0.0,90,0.00,,,0.00,weatherlink.com 1.10,2013-09-05 02:31:00,
2013-09-04 21:46:00,68.5,66.0,30.11,ESE,110,0.0,0.0,91,0.00,,,0.00,weatherlink.com 1.10,2013-09-05 02:46:00,
2013-09-04 22:01:00,68.0,66.0,30.11,ESE,110,0.0,0.0,92,0.00,,,0.00,weatherlink.com 1.10,2013-09-05 03:01:00,
2013-09-04 22:16:00,67.5,66.0,30.11,ESE,110,0.0,0.0,93,0.00,,,0.00,weatherlink.com 1.10,2013-09-05 03:16:00,
2013-09-04 22:31:00,67.2,66.0,30.11,ESE,110,0.0,0.0,94,0.00,,,0.00,weatherlink.com 1.10,2013-09-05 03:31:00,
2013-09-04 22:46:00,66.9,65.0,30.11,ESE,110,0.0,0.0,94,0.00,,,0.00,weatherlink.com 1.10,2013-09-05 03:46:00,
2013-09-04 23:01:00,66.6,65.0,30.12,ESE,110,0.0,0.0,95,0.00,,,0.00,weatherlink.com 1.10,2013-09-05 04:01:00,
2013-09-04 23:16:00,66.2,65.0,30.12,ESE,110,0.0,0.0,95,0.00,,,0.00,weatherlink.com 1.10,2013-09-05 04:16:00,
2013-09-04 23:31:00,65.9,65.0,30.12,ESE,110,0.0,0.0,96,0.00,,,0.00,weatherlink.com 1.10,2013-09-05 04:31:00,
2013-09-04 23:46:00,65.6,65.0,30.11,ESE,110,0.0,0.0,96,0.00,,,0.00,weatherlink.com 1.10,2013-09-05 04:46:00,